sensor_id;sensor_type;location;lat;lon;timestamp;pressure;altitude;pressure_sealevel;temperature;humidity
62634;BME280;48704;50.534;6.442;2023-05-11T00:01:07;95310.53;;;7.67;100.00
62634;BME280;48704;50.534;6.442;2023-05-11T00:03:33;95315.00;;;7.74;100.00
62634;BME280;48704;50.534;6.442;2023-05-11T00:05:59;95313.78;;;7.48;100.00
62634;BME280;48704;50.534;6.442;2023-05-11T00:08:24;95318.91;;;7.40;100.00
62634;BME280;48704;50.534;6.442;2023-05-11T00:10:50;95319.16;;;7.69;100.00
62634;BME280;48704;50.534;6.442;2023-05-11T00:13:16;95322.41;;;7.68;100.00
62634;BME280;48704;50.534;6.442;2023-05-11T00:15:41;95328.56;;;7.72;100.00
62634;BME280;48704;50.534;6.442;2023-05-11T00:18:07;95329.50;;;7.69;100.00
62634;BME280;48704;50.534;6.442;2023-05-11T00:20:32;95334.72;;;7.76;100.00
62634;BME280;48704;50.534;6.442;2023-05-11T00:22:58;95331.03;;;7.61;100.00
62634;BME280;48704;50.534;6.442;2023-05-11T00:25:23;95333.81;;;7.61;100.00
62634;BME280;48704;50.534;6.442;2023-05-11T00:27:48;95333.38;;;7.17;100.00
62634;BME280;48704;50.534;6.442;2023-05-11T00:30:14;95338.91;;;7.17;100.00
62634;BME280;48704;50.534;6.442;2023-05-11T00:32:40;95331.69;;;7.28;100.00
62634;BME280;48704;50.534;6.442;2023-05-11T00:35:06;95333.69;;;7.28;100.00
62634;BME280;48704;50.534;6.442;2023-05-11T00:37:31;95326.00;;;7.23;100.00
62634;BME280;48704;50.534;6.442;2023-05-11T00:39:57;95323.84;;;7.18;100.00
62634;BME280;48704;50.534;6.442;2023-05-11T00:42:22;95324.91;;;7.11;100.00
62634;BME280;48704;50.534;6.442;2023-05-11T00:44:47;95324.91;;;7.11;100.00
62634;BME280;48704;50.534;6.442;2023-05-11T00:47:12;95332.31;;;6.96;100.00
62634;BME280;48704;50.534;6.442;2023-05-11T00:49:38;95323.06;;;6.99;100.00
62634;BME280;48704;50.534;6.442;2023-05-11T00:52:04;95331.06;;;6.97;100.00
62634;BME280;48704;50.534;6.442;2023-05-11T00:54:30;95329.53;;;6.96;100.00
62634;BME280;48704;50.534;6.442;2023-05-11T00:56:55;95325.53;;;6.97;100.00
62634;BME280;48704;50.534;6.442;2023-05-11T00:59:21;95334.13;;;6.90;100.00
62634;BME280;48704;50.534;6.442;2023-05-11T01:01:47;95339.06;;;6.95;100.00
62634;BME280;48704;50.534;6.442;2023-05-11T01:04:13;95338.75;;;6.93;100.00
62634;BME280;48704;50.534;6.442;2023-05-11T01:06:54;95336.91;;;6.90;100.00
62634;BME280;48704;50.534;6.442;2023-05-11T01:11:56;95335.06;;;6.96;100.00
62634;BME280;48704;50.534;6.442;2023-05-11T01:15:18;95337.69;;;6.99;100.00
62634;BME280;48704;50.534;6.442;2023-05-11T01:17:43;95331.69;;;7.01;100.00
62634;BME280;48704;50.534;6.442;2023-05-11T01:20:16;95341.53;;;7.02;100.00
62634;BME280;48704;50.534;6.442;2023-05-11T01:22:51;95340.91;;;7.07;100.00
62634;BME280;48704;50.534;6.442;2023-05-11T01:28:09;95346.44;;;7.07;100.00
62634;BME280;48704;50.534;6.442;2023-05-11T01:30:44;95350.16;;;7.13;100.00
62634;BME280;48704;50.534;6.442;2023-05-11T01:33:13;95341.09;;;7.03;100.00
62634;BME280;48704;50.534;6.442;2023-05-11T01:35:45;95341.38;;;7.05;100.00
62634;BME280;48704;50.534;6.442;2023-05-11T01:38:13;95340.75;;;7.11;100.00
62634;BME280;48704;50.534;6.442;2023-05-11T01:40:43;95344.91;;;7.06;100.00
62634;BME280;48704;50.534;6.442;2023-05-11T01:43:13;95333.25;;;7.02;100.00
62634;BME280;48704;50.534;6.442;2023-05-11T01:45:44;95332.94;;;7.00;100.00
62634;BME280;48704;50.534;6.442;2023-05-11T01:48:16;95337.06;;;6.86;100.00
62634;BME280;48704;50.534;6.442;2023-05-11T01:50:43;95341.53;;;6.93;100.00
62634;BME280;48704;50.534;6.442;2023-05-11T01:53:11;95337.38;;;6.97;100.00
62634;BME280;48704;50.534;6.442;2023-05-11T01:55:38;95332.31;;;6.96;100.00
62634;BME280;48704;50.534;6.442;2023-05-11T01:58:05;95331.53;;;6.95;100.00
62634;BME280;48704;50.534;6.442;2023-05-11T02:00:33;95334.78;;;7.03;100.00
62634;BME280;48704;50.534;6.442;2023-05-11T02:03:00;95337.84;;;7.05;100.00
62634;BME280;48704;50.534;6.442;2023-05-11T02:05:27;95332.31;;;7.05;100.00
62634;BME280;48704;50.534;6.442;2023-05-11T02:07:57;95338.75;;;6.93;100.00
62634;BME280;48704;50.534;6.442;2023-05-11T02:10:25;95336.31;;;7.04;100.00
62634;BME280;48704;50.534;6.442;2023-05-11T02:12:52;95334.44;;;7.10;100.00
62634;BME280;48704;50.534;6.442;2023-05-11T02:15:19;95332.91;;;7.09;100.00
62634;BME280;48704;50.534;6.442;2023-05-11T02:17:45;95329.25;;;7.03;100.00
62634;BME280;48704;50.534;6.442;2023-05-11T02:20:12;95331.06;;;6.97;100.00
62634;BME280;48704;50.534;6.442;2023-05-11T02:22:38;95332.91;;;6.91;100.00
62634;BME280;48704;50.534;6.442;2023-05-11T02:25:04;95341.50;;;6.75;100.00
62634;BME280;48704;50.534;6.442;2023-05-11T02:27:30;95338.41;;;6.72;100.00
62634;BME280;48704;50.534;6.442;2023-05-11T02:29:57;95345.97;;;6.81;100.00
62634;BME280;48704;50.534;6.442;2023-05-11T02:32:23;95347.06;;;6.84;100.00
62634;BME280;48704;50.534;6.442;2023-05-11T02:34:57;95344.91;;;6.88;100.00
62634;BME280;48704;50.534;6.442;2023-05-11T02:37:24;95347.06;;;6.93;100.00
62634;BME280;48704;50.534;6.442;2023-05-11T02:39:58;95354.50;;;6.47;100.00
62634;BME280;48704;50.534;6.442;2023-05-11T02:42:26;95348.06;;;6.10;100.00
62634;BME280;48704;50.534;6.442;2023-05-11T02:45:07;95346.44;;;5.90;100.00
62634;BME280;48704;50.534;6.442;2023-05-11T02:47:42;95347.09;;;6.03;100.00
62634;BME280;48704;50.534;6.442;2023-05-11T02:50:11;95335.00;;;6.59;100.00
62634;BME280;48704;50.534;6.442;2023-05-11T02:52:41;95344.84;;;6.69;100.00
62634;BME280;48704;50.534;6.442;2023-05-11T02:55:08;95354.09;;;6.76;100.00
62634;BME280;48704;50.534;6.442;2023-05-11T02:57:35;95344.78;;;6.42;100.00
62634;BME280;48704;50.534;6.442;2023-05-11T03:00:00;95340.34;;;6.45;100.00
62634;BME280;48704;50.534;6.442;2023-05-11T03:02:26;95340.75;;;6.34;100.00
62634;BME280;48704;50.534;6.442;2023-05-11T03:04:51;95340.00;;;6.24;100.00
62634;BME280;48704;50.534;6.442;2023-05-11T03:07:17;95338.75;;;6.25;100.00
62634;BME280;48704;50.534;6.442;2023-05-11T03:09:42;95332.47;;;6.25;100.00
62634;BME280;48704;50.534;6.442;2023-05-11T03:12:08;95333.38;;;6.22;100.00
62634;BME280;48704;50.534;6.442;2023-05-11T03:14:34;95331.97;;;6.17;100.00
62634;BME280;48704;50.534;6.442;2023-05-11T03:17:01;95339.53;;;5.95;100.00
62634;BME280;48704;50.534;6.442;2023-05-11T03:19:27;95330.78;;;5.96;100.00
62634;BME280;48704;50.534;6.442;2023-05-11T03:21:53;95337.44;;;5.77;100.00
62634;BME280;48704;50.534;6.442;2023-05-11T03:24:20;95329.72;;;5.72;100.00
62634;BME280;48704;50.534;6.442;2023-05-11T03:26:46;95334.66;;;5.77;100.00
62634;BME280;48704;50.534;6.442;2023-05-11T03:29:12;95328.16;;;5.71;100.00
62634;BME280;48704;50.534;6.442;2023-05-11T03:31:38;95329.72;;;5.72;100.00
62634;BME280;48704;50.534;6.442;2023-05-11T03:34:03;95329.19;;;5.86;100.00
62634;BME280;48704;50.534;6.442;2023-05-11T03:36:29;95325.50;;;6.20;100.00
62634;BME280;48704;50.534;6.442;2023-05-11T03:38:56;95324.47;;;6.27;100.00
62634;BME280;48704;50.534;6.442;2023-05-11T03:41:24;95323.56;;;6.30;100.00
62634;BME280;48704;50.534;6.442;2023-05-11T03:43:52;95320.66;;;6.43;100.00
62634;BME280;48704;50.534;6.442;2023-05-11T03:46:20;95323.09;;;6.41;100.00
62634;BME280;48704;50.534;6.442;2023-05-11T03:48:45;95322.03;;;6.38;100.00
62634;BME280;48704;50.534;6.442;2023-05-11T03:51:12;95324.50;;;6.45;100.00
62634;BME280;48704;50.534;6.442;2023-05-11T03:53:38;95326.97;;;6.43;100.00
62634;BME280;48704;50.534;6.442;2023-05-11T03:56:04;95323.44;;;6.43;100.00
62634;BME280;48704;50.534;6.442;2023-05-11T03:58:32;95321.44;;;6.43;100.00
62634;BME280;48704;50.534;6.442;2023-05-11T04:00:57;95320.50;;;6.46;100.00
62634;BME280;48704;50.534;6.442;2023-05-11T04:03:23;95328.81;;;6.46;100.00
62634;BME280;48704;50.534;6.442;2023-05-11T04:05:48;95325.13;;;6.49;100.00
62634;BME280;48704;50.534;6.442;2023-05-11T04:08:14;95319.91;;;6.51;100.00
62634;BME280;48704;50.534;6.442;2023-05-11T04:10:39;95318.66;;;6.43;100.00
62634;BME280;48704;50.534;6.442;2023-05-11T04:13:05;95325.44;;;6.42;100.00
62634;BME280;48704;50.534;6.442;2023-05-11T04:15:30;95323.31;;;6.55;100.00
62634;BME280;48704;50.534;6.442;2023-05-11T04:17:55;95330.06;;;6.54;100.00
62634;BME280;48704;50.534;6.442;2023-05-11T04:20:21;95328.41;;;6.66;100.00
62634;BME280;48704;50.534;6.442;2023-05-11T04:22:46;95331.16;;;6.57;100.00
62634;BME280;48704;50.534;6.442;2023-05-11T04:25:11;95341.81;;;6.86;100.00
62634;BME280;48704;50.534;6.442;2023-05-11T04:27:38;95327.06;;;6.89;100.00
62634;BME280;48704;50.534;6.442;2023-05-11T04:30:04;95332.63;;;6.98;100.00
62634;BME280;48704;50.534;6.442;2023-05-11T04:32:30;95338.59;;;7.05;100.00
62634;BME280;48704;50.534;6.442;2023-05-11T04:34:55;95335.84;;;7.15;100.00
62634;BME280;48704;50.534;6.442;2023-05-11T04:37:20;95337.84;;;7.23;100.00
62634;BME280;48704;50.534;6.442;2023-05-11T04:39:46;95343.09;;;7.30;100.00
62634;BME280;48704;50.534;6.442;2023-05-11T04:42:11;95341.09;;;7.31;100.00
62634;BME280;48704;50.534;6.442;2023-05-11T04:44:36;95333.53;;;7.31;100.00
62634;BME280;48704;50.534;6.442;2023-05-11T04:47:03;95346.00;;;7.36;100.00
62634;BME280;48704;50.534;6.442;2023-05-11T04:49:28;95340.63;;;7.32;100.00
62634;BME280;48704;50.534;6.442;2023-05-11T04:51:54;95348.00;;;7.45;100.00
62634;BME280;48704;50.534;6.442;2023-05-11T04:54:19;95357.25;;;7.32;100.00
62634;BME280;48704;50.534;6.442;2023-05-11T04:56:44;95349.53;;;7.46;100.00
62634;BME280;48704;50.534;6.442;2023-05-11T04:59:10;95350.44;;;7.43;100.00
62634;BME280;48704;50.534;6.442;2023-05-11T05:01:35;95360.63;;;7.46;100.00
62634;BME280;48704;50.534;6.442;2023-05-11T05:04:00;95356.63;;;7.47;100.00
62634;BME280;48704;50.534;6.442;2023-05-11T05:06:26;95366.94;;;7.64;100.00
62634;BME280;48704;50.534;6.442;2023-05-11T05:08:51;95367.97;;;7.85;100.00
62634;BME280;48704;50.534;6.442;2023-05-11T05:11:17;95363.63;;;8.02;100.00
62634;BME280;48704;50.534;6.442;2023-05-11T05:13:42;95359.38;;;7.74;100.00
62634;BME280;48704;50.534;6.442;2023-05-11T05:16:08;95371.94;;;8.12;100.00
62634;BME280;48704;50.534;6.442;2023-05-11T05:18:33;95371.00;;;8.15;100.00
62634;BME280;48704;50.534;6.442;2023-05-11T05:20:58;95380.28;;;8.02;100.00
62634;BME280;48704;50.534;6.442;2023-05-11T05:23:24;95371.78;;;8.15;100.00
62634;BME280;48704;50.534;6.442;2023-05-11T05:25:50;95368.94;;;8.24;100.00
62634;BME280;48704;50.534;6.442;2023-05-11T05:28:15;95368.16;;;8.24;100.00
62634;BME280;48704;50.534;6.442;2023-05-11T05:30:40;95378.66;;;8.38;100.00
62634;BME280;48704;50.534;6.442;2023-05-11T05:33:05;95383.25;;;8.41;100.00
62634;BME280;48704;50.534;6.442;2023-05-11T05:35:31;95384.03;;;8.42;100.00
62634;BME280;48704;50.534;6.442;2023-05-11T05:37:56;95380.78;;;8.43;100.00
62634;BME280;48704;50.534;6.442;2023-05-11T05:40:21;95387.59;;;8.33;100.00
62634;BME280;48704;50.534;6.442;2023-05-11T05:42:47;95389.75;;;8.38;100.00
62634;BME280;48704;50.534;6.442;2023-05-11T05:45:12;95392.50;;;8.47;100.00
62634;BME280;48704;50.534;6.442;2023-05-11T05:47:37;95388.19;;;8.46;100.00
62634;BME280;48704;50.534;6.442;2023-05-11T05:50:04;95397.53;;;8.16;100.00
62634;BME280;48704;50.534;6.442;2023-05-11T05:52:30;95393.88;;;8.52;100.00
62634;BME280;48704;50.534;6.442;2023-05-11T05:54:55;95398.06;;;8.80;100.00
62634;BME280;48704;50.534;6.442;2023-05-11T05:57:20;95389.97;;;8.91;100.00
62634;BME280;48704;50.534;6.442;2023-05-11T05:59:46;95399.47;;;8.99;100.00
62634;BME280;48704;50.534;6.442;2023-05-11T06:02:11;95402.81;;;9.13;100.00
62634;BME280;48704;50.534;6.442;2023-05-11T06:04:37;95400.50;;;9.11;100.00
62634;BME280;48704;50.534;6.442;2023-05-11T06:07:03;95393.94;;;9.23;100.00
62634;BME280;48704;50.534;6.442;2023-05-11T06:09:28;95394.16;;;9.34;100.00
62634;BME280;48704;50.534;6.442;2023-05-11T06:11:53;95401.38;;;9.41;100.00
62634;BME280;48704;50.534;6.442;2023-05-11T06:14:19;95405.63;;;9.51;100.00
62634;BME280;48704;50.534;6.442;2023-05-11T06:16:46;95393.03;;;9.65;100.00
62634;BME280;48704;50.534;6.442;2023-05-11T06:19:12;95397.91;;;9.70;100.00
62634;BME280;48704;50.534;6.442;2023-05-11T06:21:37;95399.25;;;9.60;100.00
62634;BME280;48704;50.534;6.442;2023-05-11T06:24:03;95397.13;;;9.55;100.00
62634;BME280;48704;50.534;6.442;2023-05-11T06:26:29;95404.03;;;9.35;100.00
62634;BME280;48704;50.534;6.442;2023-05-11T06:28:54;95396.00;;;9.14;100.00
62634;BME280;48704;50.534;6.442;2023-05-11T06:31:20;95409.59;;;9.35;100.00
62634;BME280;48704;50.534;6.442;2023-05-11T06:33:47;95395.28;;;9.04;100.00
62634;BME280;48704;50.534;6.442;2023-05-11T06:36:13;95404.34;;;9.14;100.00
62634;BME280;48704;50.534;6.442;2023-05-11T06:38:38;95402.88;;;9.27;100.00
62634;BME280;48704;50.534;6.442;2023-05-11T06:41:03;95397.53;;;9.38;100.00
62634;BME280;48704;50.534;6.442;2023-05-11T06:43:29;95393.66;;;9.21;100.00
62634;BME280;48704;50.534;6.442;2023-05-11T06:45:54;95402.03;;;9.60;100.00
62634;BME280;48704;50.534;6.442;2023-05-11T06:48:19;95399.91;;;9.69;100.00
62634;BME280;48704;50.534;6.442;2023-05-11T06:50:47;95404.09;;;9.50;100.00
62634;BME280;48704;50.534;6.442;2023-05-11T06:53:13;95408.53;;;9.57;100.00
62634;BME280;48704;50.534;6.442;2023-05-11T06:55:38;95404.69;;;9.69;100.00
62634;BME280;48704;50.534;6.442;2023-05-11T06:58:04;95401.19;;;9.83;100.00
62634;BME280;48704;50.534;6.442;2023-05-11T07:00:29;95406.06;;;10.27;100.00
62634;BME280;48704;50.534;6.442;2023-05-11T07:02:54;95408.66;;;10.30;100.00
62634;BME280;48704;50.534;6.442;2023-05-11T07:05:19;95409.41;;;10.31;100.00
62634;BME280;48704;50.534;6.442;2023-05-11T07:07:45;95405.38;;;10.32;100.00
62634;BME280;48704;50.534;6.442;2023-05-11T07:10:10;95400.53;;;10.18;100.00
62634;BME280;48704;50.534;6.442;2023-05-11T07:12:35;95412.00;;;9.66;100.00
62634;BME280;48704;50.534;6.442;2023-05-11T07:15:01;95407.25;;;9.96;100.00
62634;BME280;48704;50.534;6.442;2023-05-11T07:17:26;95403.03;;;10.16;100.00
62634;BME280;48704;50.534;6.442;2023-05-11T07:19:52;95405.78;;;10.25;100.00
62634;BME280;48704;50.534;6.442;2023-05-11T07:22:18;95414.22;;;9.77;100.00
62634;BME280;48704;50.534;6.442;2023-05-11T07:24:44;95413.19;;;9.89;100.00
62634;BME280;48704;50.534;6.442;2023-05-11T07:27:09;95405.91;;;10.06;100.00
62634;BME280;48704;50.534;6.442;2023-05-11T07:29:35;95413.84;;;10.23;100.00
62634;BME280;48704;50.534;6.442;2023-05-11T07:32:00;95410.53;;;9.95;100.00
62634;BME280;48704;50.534;6.442;2023-05-11T07:34:26;95412.50;;;10.33;100.00
62634;BME280;48704;50.534;6.442;2023-05-11T07:36:51;95412.09;;;10.55;100.00
62634;BME280;48704;50.534;6.442;2023-05-11T07:39:16;95418.72;;;10.72;100.00
62634;BME280;48704;50.534;6.442;2023-05-11T07:41:42;95414.78;;;10.64;100.00
62634;BME280;48704;50.534;6.442;2023-05-11T07:44:07;95411.88;;;9.99;100.00
62634;BME280;48704;50.534;6.442;2023-05-11T07:46:32;95413.78;;;9.93;100.00
62634;BME280;48704;50.534;6.442;2023-05-11T07:48:58;95411.47;;;10.06;100.00
62634;BME280;48704;50.534;6.442;2023-05-11T07:51:23;95412.09;;;10.25;100.00
62634;BME280;48704;50.534;6.442;2023-05-11T07:53:48;95411.66;;;9.88;100.00
62634;BME280;48704;50.534;6.442;2023-05-11T07:56:14;95418.06;;;9.65;100.00
62634;BME280;48704;50.534;6.442;2023-05-11T07:58:39;95417.75;;;9.39;100.00
62634;BME280;48704;50.534;6.442;2023-05-11T08:01:05;95416.06;;;9.80;100.00
62634;BME280;48704;50.534;6.442;2023-05-11T08:03:31;95414.09;;;9.57;100.00
62634;BME280;48704;50.534;6.442;2023-05-11T08:05:57;95420.63;;;9.68;100.00
62634;BME280;48704;50.534;6.442;2023-05-11T08:08:24;95417.13;;;9.44;100.00
62634;BME280;48704;50.534;6.442;2023-05-11T08:10:50;95424.41;;;9.42;100.00
62634;BME280;48704;50.534;6.442;2023-05-11T08:13:15;95416.28;;;9.29;100.00
62634;BME280;48704;50.534;6.442;2023-05-11T08:15:41;95421.19;;;9.34;100.00
62634;BME280;48704;50.534;6.442;2023-05-11T08:18:06;95423.31;;;9.39;100.00
62634;BME280;48704;50.534;6.442;2023-05-11T08:20:32;95432.22;;;9.52;100.00
62634;BME280;48704;50.534;6.442;2023-05-11T08:22:57;95424.88;;;9.64;100.00
62634;BME280;48704;50.534;6.442;2023-05-11T08:25:23;95422.34;;;9.66;100.00
62634;BME280;48704;50.534;6.442;2023-05-11T08:27:48;95430.84;;;9.86;100.00
62634;BME280;48704;50.534;6.442;2023-05-11T08:30:14;95427.13;;;9.51;100.00
62634;BME280;48704;50.534;6.442;2023-05-11T08:32:40;95431.16;;;9.50;100.00
62634;BME280;48704;50.534;6.442;2023-05-11T08:35:05;95419.22;;;9.73;100.00
62634;BME280;48704;50.534;6.442;2023-05-11T08:37:31;95423.97;;;9.96;100.00
62634;BME280;48704;50.534;6.442;2023-05-11T08:39:56;95430.44;;;9.64;100.00
62634;BME280;48704;50.534;6.442;2023-05-11T08:42:23;95427.88;;;9.51;100.00
62634;BME280;48704;50.534;6.442;2023-05-11T08:44:49;95433.75;;;10.06;100.00
62634;BME280;48704;50.534;6.442;2023-05-11T08:47:14;95440.00;;;9.63;100.00
62634;BME280;48704;50.534;6.442;2023-05-11T08:49:40;95436.19;;;9.75;100.00
62634;BME280;48704;50.534;6.442;2023-05-11T08:52:05;95434.47;;;9.78;100.00
62634;BME280;48704;50.534;6.442;2023-05-11T08:54:31;95439.19;;;9.48;100.00
62634;BME280;48704;50.534;6.442;2023-05-11T08:56:57;95439.69;;;9.85;100.00
62634;BME280;48704;50.534;6.442;2023-05-11T08:59:26;95429.53;;;9.96;100.00
62634;BME280;48704;50.534;6.442;2023-05-11T09:01:53;95438.69;;;9.73;100.00
62634;BME280;48704;50.534;6.442;2023-05-11T09:04:19;95441.03;;;9.89;100.00
62634;BME280;48704;50.534;6.442;2023-05-11T09:06:48;95437.78;;;9.67;100.00
62634;BME280;48704;50.534;6.442;2023-05-11T09:09:14;95431.53;;;10.11;100.00
62634;BME280;48704;50.534;6.442;2023-05-11T09:11:40;95437.59;;;10.09;100.00
62634;BME280;48704;50.534;6.442;2023-05-11T09:14:06;95435.47;;;9.89;100.00
62634;BME280;48704;50.534;6.442;2023-05-11T09:16:31;95428.34;;;10.27;100.00
62634;BME280;48704;50.534;6.442;2023-05-11T09:18:59;95429.41;;;10.29;100.00
62634;BME280;48704;50.534;6.442;2023-05-11T09:21:25;95438.97;;;10.43;100.00
62634;BME280;48704;50.534;6.442;2023-05-11T09:23:54;95436.88;;;10.38;100.00
62634;BME280;48704;50.534;6.442;2023-05-11T09:26:21;95426.38;;;10.18;100.00
62634;BME280;48704;50.534;6.442;2023-05-11T09:28:52;95427.03;;;10.13;100.00
62634;BME280;48704;50.534;6.442;2023-05-11T09:31:42;95430.78;;;10.10;100.00
62634;BME280;48704;50.534;6.442;2023-05-11T09:34:20;95426.22;;;10.22;100.00
62634;BME280;48704;50.534;6.442;2023-05-11T09:36:51;95434.28;;;10.20;100.00
62634;BME280;48704;50.534;6.442;2023-05-11T09:39:17;95430.47;;;10.08;100.00
62634;BME280;48704;50.534;6.442;2023-05-11T09:41:45;95428.00;;;9.95;100.00
62634;BME280;48704;50.534;6.442;2023-05-11T09:44:13;95427.41;;;10.06;100.00
62634;BME280;48704;50.534;6.442;2023-05-11T09:46:40;95430.41;;;10.17;100.00
62634;BME280;48704;50.534;6.442;2023-05-11T09:49:06;95432.03;;;10.09;100.00
62634;BME280;48704;50.534;6.442;2023-05-11T09:51:35;95430.53;;;10.52;100.00
62634;BME280;48704;50.534;6.442;2023-05-11T09:54:01;95430.16;;;10.59;100.00
62634;BME280;48704;50.534;6.442;2023-05-11T09:56:53;95437.63;;;10.68;100.00
62634;BME280;48704;50.534;6.442;2023-05-11T09:59:39;95433.41;;;10.73;100.00
62634;BME280;48704;50.534;6.442;2023-05-11T10:02:28;95436.19;;;10.73;100.00
62634;BME280;48704;50.534;6.442;2023-05-11T10:04:55;95427.66;;;10.61;100.00
62634;BME280;48704;50.534;6.442;2023-05-11T10:07:32;95425.69;;;10.82;100.00
62634;BME280;48704;50.534;6.442;2023-05-11T10:10:03;95429.56;;;10.55;100.00
62634;BME280;48704;50.534;6.442;2023-05-11T10:12:29;95436.88;;;10.38;100.00
62634;BME280;48704;50.534;6.442;2023-05-11T10:15:02;95434.94;;;10.74;100.00
62634;BME280;48704;50.534;6.442;2023-05-11T10:17:28;95429.59;;;11.25;100.00
62634;BME280;48704;50.534;6.442;2023-05-11T10:19:58;95432.84;;;10.68;100.00
62634;BME280;48704;50.534;6.442;2023-05-11T10:22:25;95427.13;;;10.78;100.00
62634;BME280;48704;50.534;6.442;2023-05-11T10:24:50;95423.50;;;10.71;100.00
62634;BME280;48704;50.534;6.442;2023-05-11T10:27:17;95431.25;;;10.97;100.00
62634;BME280;48704;50.534;6.442;2023-05-11T10:29:43;95434.19;;;10.73;100.00
62634;BME280;48704;50.534;6.442;2023-05-11T10:32:10;95428.06;;;11.04;100.00
62634;BME280;48704;50.534;6.442;2023-05-11T10:34:36;95431.44;;;10.79;100.00
62634;BME280;48704;50.534;6.442;2023-05-11T10:37:04;95435.16;;;11.40;100.00
62634;BME280;48704;50.534;6.442;2023-05-11T10:39:31;95424.94;;;11.57;100.00
62634;BME280;48704;50.534;6.442;2023-05-11T10:56:42;95423.22;;;10.69;100.00
62634;BME280;48704;50.534;6.442;2023-05-11T11:02:02;95417.63;;;11.39;100.00
62634;BME280;48704;50.534;6.442;2023-05-11T11:04:49;95414.78;;;11.34;100.00
62634;BME280;48704;50.534;6.442;2023-05-11T11:07:15;95417.75;;;11.10;100.00
62634;BME280;48704;50.534;6.442;2023-05-11T11:12:18;95419.41;;;11.78;100.00
62634;BME280;48704;50.534;6.442;2023-05-11T11:15:03;95422.28;;;12.35;100.00
62634;BME280;48704;50.534;6.442;2023-05-11T11:17:31;95422.03;;;12.96;100.00
62634;BME280;48704;50.534;6.442;2023-05-11T11:20:02;95423.47;;;13.17;100.00
62634;BME280;48704;50.534;6.442;2023-05-11T11:25:07;95422.75;;;12.91;100.00
62634;BME280;48704;50.534;6.442;2023-05-11T11:30:27;95422.47;;;13.20;100.00
62634;BME280;48704;50.534;6.442;2023-05-11T11:38:05;95426.63;;;13.30;100.00
62634;BME280;48704;50.534;6.442;2023-05-11T11:40:38;95421.28;;;13.01;100.00
62634;BME280;48704;50.534;6.442;2023-05-11T11:56:02;95416.66;;;13.72;100.00
62634;BME280;48704;50.534;6.442;2023-05-11T12:01:12;95419.22;;;13.81;100.00
62634;BME280;48704;50.534;6.442;2023-05-11T12:03:39;95417.97;;;13.88;100.00
62634;BME280;48704;50.534;6.442;2023-05-11T12:06:06;95412.97;;;13.12;100.00
62634;BME280;48704;50.534;6.442;2023-05-11T12:08:34;95421.53;;;13.88;100.00
62634;BME280;48704;50.534;6.442;2023-05-11T12:11:00;95407.53;;;13.88;100.00
62634;BME280;48704;50.534;6.442;2023-05-11T12:13:26;95404.94;;;13.20;100.00
62634;BME280;48704;50.534;6.442;2023-05-11T12:16:15;95413.03;;;12.81;100.00
62634;BME280;48704;50.534;6.442;2023-05-11T12:18:50;95405.34;;;12.76;100.00
62634;BME280;48704;50.534;6.442;2023-05-11T12:21:34;95405.56;;;12.72;100.00
62634;BME280;48704;50.534;6.442;2023-05-11T12:24:01;95411.06;;;13.72;100.00
62634;BME280;48704;50.534;6.442;2023-05-11T12:26:28;95403.75;;;13.00;100.00
62634;BME280;48704;50.534;6.442;2023-05-11T12:29:13;95405.69;;;13.20;100.00
62634;BME280;48704;50.534;6.442;2023-05-11T12:31:41;95407.03;;;13.30;100.00
62634;BME280;48704;50.534;6.442;2023-05-11T12:34:17;95404.53;;;12.38;100.00
62634;BME280;48704;50.534;6.442;2023-05-11T12:36:47;95408.81;;;13.33;100.00
62634;BME280;48704;50.534;6.442;2023-05-11T12:39:26;95403.41;;;13.78;100.00
62634;BME280;48704;50.534;6.442;2023-05-11T12:41:53;95397.13;;;13.41;100.00
62634;BME280;48704;50.534;6.442;2023-05-11T12:44:20;95395.88;;;12.99;100.00
62634;BME280;48704;50.534;6.442;2023-05-11T12:46:47;95395.38;;;14.14;100.00
62634;BME280;48704;50.534;6.442;2023-05-11T12:49:21;95390.38;;;13.58;100.00
62634;BME280;48704;50.534;6.442;2023-05-11T12:52:04;95397.84;;;13.89;100.00
62634;BME280;48704;50.534;6.442;2023-05-11T12:54:38;95388.75;;;12.98;100.00
62634;BME280;48704;50.534;6.442;2023-05-11T12:57:06;95398.56;;;13.19;100.00
62634;BME280;48704;50.534;6.442;2023-05-11T12:59:37;95393.56;;;13.34;100.00
62634;BME280;48704;50.534;6.442;2023-05-11T13:02:14;95389.72;;;13.91;100.00
62634;BME280;48704;50.534;6.442;2023-05-11T13:04:40;95390.31;;;14.29;100.00
62634;BME280;48704;50.534;6.442;2023-05-11T13:07:06;95392.66;;;13.60;100.00
62634;BME280;48704;50.534;6.442;2023-05-11T13:09:32;95393.31;;;13.97;100.00
62634;BME280;48704;50.534;6.442;2023-05-11T13:12:16;95385.59;;;13.81;100.00
62634;BME280;48704;50.534;6.442;2023-05-11T13:14:46;95386.47;;;14.10;100.00
62634;BME280;48704;50.534;6.442;2023-05-11T13:17:12;95392.16;;;14.43;100.00
62634;BME280;48704;50.534;6.442;2023-05-11T13:19:38;95394.69;;;14.41;100.00
62634;BME280;48704;50.534;6.442;2023-05-11T13:22:04;95385.69;;;14.15;100.00
62634;BME280;48704;50.534;6.442;2023-05-11T13:24:30;95383.50;;;13.59;100.00
62634;BME280;48704;50.534;6.442;2023-05-11T13:26:57;95385.00;;;13.12;100.00
62634;BME280;48704;50.534;6.442;2023-05-11T13:29:22;95377.22;;;12.85;100.00
62634;BME280;48704;50.534;6.442;2023-05-11T13:31:49;95379.19;;;12.79;100.00
62634;BME280;48704;50.534;6.442;2023-05-11T13:34:15;95379.38;;;12.69;100.00
62634;BME280;48704;50.534;6.442;2023-05-11T13:36:41;95381.44;;;12.75;100.00
62634;BME280;48704;50.534;6.442;2023-05-11T13:39:07;95381.09;;;13.35;100.00
62634;BME280;48704;50.534;6.442;2023-05-11T13:41:32;95369.66;;;12.59;100.00
62634;BME280;48704;50.534;6.442;2023-05-11T13:43:58;95371.19;;;13.34;100.00
62634;BME280;48704;50.534;6.442;2023-05-11T13:46:24;95372.25;;;13.05;100.00
62634;BME280;48704;50.534;6.442;2023-05-11T13:48:49;95371.34;;;13.79;100.00
62634;BME280;48704;50.534;6.442;2023-05-11T13:51:15;95364.19;;;13.67;100.00